createdAt,value
2022-12-31T00:00:14.179Z,27.40
2022-12-31T00:05:38.136Z,26.20
2022-12-31T00:10:41.747Z,25.20
2022-12-31T00:15:45.238Z,26.00
2022-12-31T00:20:47.979Z,28.60
2022-12-31T00:25:50.748Z,26.00
2022-12-31T00:30:53.567Z,26.00
2022-12-31T00:36:10.601Z,25.30
2022-12-31T00:41:13.703Z,26.70
2022-12-31T00:46:16.905Z,26.60
2022-12-31T00:51:22.074Z,27.30
2022-12-31T00:56:27.697Z,26.30
2022-12-31T01:01:34.079Z,27.30
2022-12-31T01:06:36.976Z,27.30
2022-12-31T01:11:39.859Z,27.90
2022-12-31T01:16:45.183Z,26.90
2022-12-31T01:21:48.430Z,27.60
2022-12-31T01:26:51.852Z,26.70
2022-12-31T01:31:54.812Z,26.30
2022-12-31T01:36:57.521Z,26.90
2022-12-31T01:42:00.285Z,25.80
2022-12-31T01:47:03.477Z,25.70
2022-12-31T01:52:18.327Z,25.50
2022-12-31T01:57:22.183Z,25.60
2022-12-31T02:02:25.106Z,24.90
2022-12-31T02:07:28.106Z,24.70
2022-12-31T02:12:30.971Z,24.40
2022-12-31T02:17:58.530Z,25.20
2022-12-31T02:23:46.331Z,25.40
2022-12-31T02:29:23.201Z,25.30
2022-12-31T02:34:51.662Z,24.20
2022-12-31T02:39:54.448Z,23.50
2022-12-31T02:44:57.188Z,25.40
2022-12-31T02:50:18.803Z,23.70
2022-12-31T02:55:47.360Z,22.10
2022-12-31T03:01:12.102Z,21.80
2022-12-31T03:06:15.082Z,22.80
2022-12-31T03:11:37.748Z,21.60
2022-12-31T03:16:40.526Z,20.20
2022-12-31T03:22:02.621Z,18.80
2022-12-31T03:27:05.446Z,17.40
2022-12-31T03:32:08.195Z,14.80
2022-12-31T03:37:11.035Z,15.10
2022-12-31T03:42:15.225Z,15.60
2022-12-31T03:47:18.091Z,14.10
2022-12-31T03:52:22.305Z,14.50
2022-12-31T03:57:25.145Z,13.20
2022-12-31T04:02:29.206Z,13.50
2022-12-31T04:07:32.501Z,12.40
2022-12-31T04:12:35.282Z,12.20
2022-12-31T04:17:38.136Z,13.60
2022-12-31T04:22:41.273Z,12.20
2022-12-31T04:27:44.079Z,11.30
2022-12-31T04:32:46.872Z,12.00
2022-12-31T04:37:49.643Z,12.20
2022-12-31T04:42:52.470Z,12.20
2022-12-31T04:47:55.245Z,12.10
2022-12-31T04:52:58.010Z,11.90
2022-12-31T04:58:02.381Z,11.60
2022-12-31T05:03:05.238Z,11.70
2022-12-31T05:08:09.113Z,11.20
2022-12-31T05:13:12.073Z,11.10
2022-12-31T05:18:15.139Z,10.50
2022-12-31T05:23:18.018Z,9.40
2022-12-31T05:28:20.878Z,11.00
2022-12-31T05:33:23.776Z,11.40
2022-12-31T05:38:26.579Z,11.40
2022-12-31T05:43:29.411Z,11.40
2022-12-31T05:48:32.514Z,12.00
2022-12-31T05:53:35.830Z,11.50
2022-12-31T05:58:38.624Z,11.40
2022-12-31T06:03:41.658Z,11.30
2022-12-31T06:08:44.481Z,12.80
2022-12-31T06:13:47.311Z,12.70
2022-12-31T06:18:50.973Z,13.50
2022-12-31T06:23:53.852Z,12.40
2022-12-31T06:28:56.569Z,13.50
2022-12-31T06:34:01.097Z,12.70
2022-12-31T06:39:03.893Z,13.40
2022-12-31T06:44:06.730Z,12.50
2022-12-31T06:49:09.828Z,12.00
2022-12-31T06:54:13.385Z,12.10
2022-12-31T06:59:29.254Z,11.80
2022-12-31T07:04:51.053Z,10.50
2022-12-31T07:10:44.832Z,11.00
2022-12-31T07:16:12.466Z,11.80
2022-12-31T07:21:17.648Z,11.50
2022-12-31T07:26:30.067Z,10.50
2022-12-31T07:32:00.968Z,10.90
2022-12-31T07:37:11.995Z,10.00
2022-12-31T07:42:53.758Z,10.70
2022-12-31T07:48:02.277Z,10.60
2022-12-31T07:53:06.073Z,9.60
2022-12-31T07:58:56.768Z,9.50
2022-12-31T08:04:05.338Z,9.10
2022-12-31T08:14:31.653Z,9.00
2022-12-31T08:19:34.745Z,9.60
2022-12-31T08:24:59.706Z,9.30
2022-12-31T08:30:16.301Z,8.80
2022-12-31T08:35:35.358Z,9.50
2022-12-31T08:40:48.849Z,9.50
2022-12-31T08:45:53.167Z,9.00
2022-12-31T08:50:56.395Z,8.50
2022-12-31T08:56:07.326Z,8.20
2022-12-31T09:01:10.364Z,7.90
2022-12-31T09:06:26.706Z,8.10
2022-12-31T09:11:53.514Z,7.80
2022-12-31T09:17:09.979Z,7.70
2022-12-31T09:22:13.670Z,7.90
2022-12-31T09:27:41.002Z,7.00
2022-12-31T09:33:09.275Z,7.80
2022-12-31T09:38:31.368Z,6.80
2022-12-31T09:43:49.454Z,6.30
2022-12-31T09:49:49.313Z,6.30
2022-12-31T09:55:27.783Z,5.70
2022-12-31T10:00:43.952Z,5.80
2022-12-31T10:06:08.563Z,5.70
2022-12-31T10:11:49.395Z,5.90
2022-12-31T10:17:19.587Z,6.20
2022-12-31T10:22:44.141Z,6.70
2022-12-31T10:27:57.697Z,5.80
2022-12-31T10:33:29.368Z,6.00
2022-12-31T10:39:00.517Z,6.60
2022-12-31T10:44:36.647Z,6.40
2022-12-31T10:50:07.305Z,5.60
2022-12-31T10:55:50.212Z,5.30
2022-12-31T11:01:11.591Z,5.30
2022-12-31T11:06:29.594Z,5.70
2022-12-31T11:12:19.779Z,5.40
2022-12-31T11:17:37.175Z,5.50
2022-12-31T11:23:11.136Z,5.10
2022-12-31T11:28:36.884Z,5.20
2022-12-31T11:34:25.988Z,5.60
2022-12-31T11:40:24.560Z,5.00
2022-12-31T11:46:19.273Z,5.20
2022-12-31T11:51:50.468Z,5.30
2022-12-31T11:57:18.578Z,6.60
2022-12-31T12:02:34.931Z,5.00
2022-12-31T12:07:37.728Z,5.10
2022-12-31T12:12:43.439Z,4.70
2022-12-31T12:17:53.890Z,4.50
2022-12-31T12:22:58.574Z,4.30
2022-12-31T12:28:44.175Z,4.30
2022-12-31T12:33:49.192Z,4.20
2022-12-31T12:39:04.419Z,4.20
2022-12-31T12:44:13.701Z,4.70
2022-12-31T12:49:26.555Z,4.40
2022-12-31T12:54:37.031Z,4.30
2022-12-31T13:00:02.449Z,4.70
2022-12-31T13:05:35.744Z,5.10
2022-12-31T13:10:38.581Z,4.40
2022-12-31T13:15:58.233Z,4.40
2022-12-31T13:21:07.199Z,4.10
2022-12-31T13:26:19.223Z,4.20
2022-12-31T13:31:29.536Z,4.40
2022-12-31T13:36:32.953Z,3.90
2022-12-31T13:41:59.293Z,5.10
2022-12-31T13:47:30.305Z,4.50
2022-12-31T13:52:42.762Z,4.20
2022-12-31T13:57:49.785Z,4.40
2022-12-31T14:03:26.736Z,4.20
2022-12-31T14:08:29.637Z,4.70
2022-12-31T14:14:01.727Z,4.60
2022-12-31T14:19:55.506Z,4.40
2022-12-31T14:24:59.110Z,4.60
2022-12-31T14:30:06.815Z,3.90
2022-12-31T14:36:09.997Z,4.30
2022-12-31T14:41:33.838Z,4.00
2022-12-31T14:46:52.620Z,4.30
2022-12-31T14:52:07.441Z,4.50
2022-12-31T14:57:54.464Z,4.30
2022-12-31T15:03:13.501Z,4.00
2022-12-31T15:08:43.006Z,3.80
2022-12-31T15:14:04.789Z,3.50
2022-12-31T15:19:26.132Z,3.60
2022-12-31T15:24:30.723Z,3.30
2022-12-31T15:29:36.883Z,3.70
2022-12-31T15:34:39.846Z,3.50
2022-12-31T15:39:43.189Z,3.50
2022-12-31T15:44:52.256Z,3.40
2022-12-31T15:49:58.378Z,3.60
2022-12-31T15:55:01.203Z,3.60
2022-12-31T16:00:19.177Z,3.50
2022-12-31T16:05:25.565Z,3.50
2022-12-31T16:10:30.975Z,3.80
2022-12-31T16:15:34.283Z,3.60
2022-12-31T16:20:46.475Z,4.10
2022-12-31T16:25:50.969Z,3.80
2022-12-31T16:31:07.023Z,3.60
2022-12-31T16:36:23.109Z,3.90
2022-12-31T16:41:25.868Z,3.60
2022-12-31T16:46:30.946Z,4.20
2022-12-31T16:51:34.173Z,4.20
2022-12-31T16:56:38.604Z,3.80
2022-12-31T17:01:41.669Z,3.90
2022-12-31T17:06:44.840Z,3.80
2022-12-31T17:11:52.378Z,3.80
2022-12-31T17:17:06.989Z,4.10
2022-12-31T17:22:49.505Z,3.70
2022-12-31T17:28:05.410Z,3.50
2022-12-31T17:33:10.963Z,3.60
2022-12-31T17:38:23.050Z,3.90
2022-12-31T17:43:28.737Z,3.60
2022-12-31T17:48:36.342Z,3.80
2022-12-31T17:53:39.267Z,3.70
2022-12-31T17:58:52.664Z,4.10
2022-12-31T18:03:56.836Z,3.60
2022-12-31T18:09:00.988Z,4.10
2022-12-31T18:14:03.875Z,3.90
2022-12-31T18:19:37.709Z,5.30
2022-12-31T18:24:38.696Z,4.10
2022-12-31T18:29:41.448Z,4.40
2022-12-31T18:34:44.374Z,4.30
2022-12-31T18:39:47.220Z,4.50
2022-12-31T18:44:49.998Z,4.00
2022-12-31T18:49:52.903Z,5.30
2022-12-31T18:54:55.744Z,4.80
2022-12-31T18:59:58.477Z,4.40
2022-12-31T19:05:01.163Z,4.30
2022-12-31T19:10:04.893Z,4.10
2022-12-31T19:15:24.894Z,4.30
2022-12-31T19:20:28.552Z,5.10
2022-12-31T19:25:35.898Z,4.40
2022-12-31T19:30:38.862Z,4.60
2022-12-31T19:35:42.000Z,4.60
2022-12-31T19:40:44.815Z,5.10
2022-12-31T19:45:48.137Z,4.60
2022-12-31T19:50:52.851Z,4.40
2022-12-31T19:55:55.712Z,4.40
2022-12-31T20:01:02.959Z,4.80
2022-12-31T20:06:08.815Z,4.70
2022-12-31T20:11:21.015Z,4.90
2022-12-31T20:16:26.714Z,5.30
2022-12-31T20:21:29.944Z,5.20
2022-12-31T20:26:32.693Z,6.20
2022-12-31T20:31:35.544Z,5.10
2022-12-31T20:36:39.629Z,5.50
2022-12-31T20:41:42.439Z,5.10
2022-12-31T20:46:45.617Z,5.30
2022-12-31T20:51:52.075Z,5.20
2022-12-31T20:56:55.256Z,5.30
2022-12-31T21:07:20.864Z,6.00
2022-12-31T21:12:43.544Z,5.70
2022-12-31T21:17:46.492Z,5.80
2022-12-31T21:22:49.284Z,6.70
2022-12-31T21:27:52.066Z,5.80
2022-12-31T21:32:55.902Z,5.40
2022-12-31T21:38:03.233Z,5.30
2022-12-31T21:43:06.090Z,5.40
2022-12-31T21:48:20.552Z,5.00
2022-12-31T21:53:30.455Z,5.30
2022-12-31T21:58:41.933Z,5.20
2022-12-31T22:03:45.097Z,4.70
2022-12-31T22:08:50.634Z,4.30
2022-12-31T22:13:53.706Z,4.70
2022-12-31T22:18:56.638Z,4.90
2022-12-31T22:23:59.591Z,4.70
2022-12-31T22:29:02.323Z,4.70
2022-12-31T22:34:05.084Z,4.70
2022-12-31T22:39:09.616Z,5.00
2022-12-31T22:44:12.692Z,5.20
2022-12-31T22:49:17.192Z,5.20
2022-12-31T22:54:20.306Z,4.50
2022-12-31T22:59:24.396Z,5.30
2022-12-31T23:04:27.298Z,8.20
2022-12-31T23:09:48.673Z,9.60
2022-12-31T23:15:10.444Z,9.50
2022-12-31T23:20:40.038Z,14.80
2022-12-31T23:25:49.710Z,12.10
2022-12-31T23:30:53.682Z,10.80
2022-12-31T23:36:04.861Z,11.90
2022-12-31T23:41:18.982Z,11.50
2022-12-31T23:46:21.797Z,10.50
2022-12-31T23:51:24.653Z,10.20
2022-12-31T23:56:27.525Z,8.50
